Time;durP1;ratioP1;P1;durP2;ratioP2;P2;SDS_P1;SDS_P2;PMS_P1;PMS_P2;Temp;Humidity;BMP_temperature;BMP_pressure;BME280_temperature;BME280_humidity;BME280_pressure;Samples;Min_cycle;Max_cycle;Signal;HPM_P1;HPM_P2
2023/09/10 00:01:05;;;;;;;9.73;7.88;;;;;;;11.51;79.18;100495.72;5052123;28;20032;-67
2023/09/10 00:03:34;;;;;;;8.18;7.10;;;;;;;11.32;79.23;100464.88;5052094;28;20418;-70
2023/09/10 00:06:01;;;;;;;10.38;7.45;;;;;;;11.24;79.06;100457.41;5053448;28;20451;-67
2023/09/10 00:08:28;;;;;;;11.48;7.55;;;;;;;11.49;79.13;100506.53;5052153;28;20040;-67
2023/09/10 00:10:56;;;;;;;13.30;7.78;;;;;;;11.42;79.01;100492.72;5052317;28;20443;-67
2023/09/10 00:13:22;;;;;;;11.32;7.53;;;;;;;11.46;79.53;100493.38;5053183;28;20060;-67
2023/09/10 00:15:48;;;;;;;13.57;8.20;;;;;;;11.52;79.19;100506.31;5052149;28;20115;-67
2023/09/10 00:18:16;;;;;;;10.00;7.75;;;;;;;11.48;79.26;100491.41;5053007;28;20499;-67
2023/09/10 00:20:42;;;;;;;9.77;7.60;;;;;;;11.49;79.09;100499.38;5052560;28;20044;-67
2023/09/10 00:23:08;;;;;;;9.75;7.40;;;;;;;11.37;79.04;100483.31;5052230;28;20029;-68
2023/09/10 00:25:34;;;;;;;10.48;7.97;;;;;;;11.45;79.24;100492.53;5052380;28;20033;-68
2023/09/10 00:27:59;;;;;;;12.85;8.27;;;;;;;11.40;79.17;100486.63;5052840;28;20037;-66
2023/09/10 00:30:26;;;;;;;12.82;7.53;;;;;;;11.19;79.28;100454.22;5052731;28;20095;-66
2023/09/10 00:32:52;;;;;;;13.90;8.02;;;;;;;11.36;79.21;100492.34;5051955;28;20916;-67
2023/09/10 00:35:17;;;;;;;11.32;7.72;;;;;;;11.34;79.29;100490.63;5034756;28;20045;-66
2023/09/10 00:37:43;;;;;;;12.23;8.35;;;;;;;11.26;79.37;100471.56;5052435;28;20359;-66
2023/09/10 00:40:09;;;;;;;11.65;8.07;;;;;;;11.34;79.81;100496.00;5052551;28;20037;-66
2023/09/10 00:42:35;;;;;;;10.43;7.35;;;;;;;11.39;79.69;100502.84;5051990;28;20170;-66
2023/09/10 00:45:01;;;;;;;11.15;8.70;;;;;;;11.39;79.84;100492.94;5051322;28;20033;-67
2023/09/10 00:47:27;;;;;;;10.52;8.05;;;;;;;11.52;79.62;100492.06;5051392;28;20029;-67
2023/09/10 00:49:53;;;;;;;9.77;8.13;;;;;;;11.63;79.41;100500.16;5031356;28;20840;-67
2023/09/10 00:52:23;;;;;;;12.18;7.95;;;;;;;11.66;79.23;100486.50;5032829;28;20127;-68
2023/09/10 00:54:49;;;;;;;10.02;7.88;;;;;;;11.81;78.90;100505.13;5031363;28;20086;-66
2023/09/10 00:57:15;;;;;;;9.68;7.85;;;;;;;11.84;78.70;100495.03;5032219;28;20356;-67
2023/09/10 00:59:41;;;;;;;13.25;7.95;;;;;;;11.93;78.59;100490.75;5030504;28;20063;-66
2023/09/10 01:02:08;;;;;;;10.02;8.20;;;;;;;11.96;78.24;100484.31;5051364;28;20068;-68
2023/09/10 01:04:33;;;;;;;11.02;8.43;;;;;;;12.10;78.09;100497.59;5052268;28;20036;-67
2023/09/10 01:07:01;;;;;;;10.02;8.15;;;;;;;12.18;77.75;100484.41;5052164;28;20021;-68
2023/09/10 01:09:26;;;;;;;9.80;8.30;;;;;;;12.27;77.45;100482.00;5051655;28;20087;-67
2023/09/10 01:12:15;;;;;;;11.73;8.68;;;;;;;12.49;77.07;100495.47;5052392;28;20048;-67
2023/09/10 01:14:43;;;;;;;9.85;8.43;;;;;;;12.45;76.36;100485.09;5055924;28;20125;-66
2023/09/10 01:17:45;;;;;;;11.25;8.77;;;;;;;12.65;76.06;100491.56;5056198;28;20052;-66
2023/09/10 01:20:33;;;;;;;10.75;8.75;;;;;;;12.64;75.30;100487.19;5056641;28;20029;-67
2023/09/10 01:23:07;;;;;;;10.52;8.85;;;;;;;12.68;74.79;100490.50;5055073;28;20033;-66
2023/09/10 01:25:33;;;;;;;10.77;8.70;;;;;;;12.64;74.64;100487.19;5056373;28;20024;-66
2023/09/10 01:28:04;;;;;;;9.80;8.27;;;;;;;12.70;74.44;100494.75;5055195;28;20028;-66
2023/09/10 01:30:31;;;;;;;9.32;8.32;;;;;;;12.77;74.06;100501.34;5056630;28;20025;-66
2023/09/10 01:33:05;;;;;;;11.10;8.55;;;;;;;12.78;73.77;100486.97;5038248;28;20064;-66
2023/09/10 01:36:05;;;;;;;12.65;8.85;;;;;;;12.91;73.78;100492.22;5055298;28;20036;-66
2023/09/10 01:38:43;;;;;;;14.52;8.30;;;;;;;12.93;73.33;100492.06;5055872;28;20025;-66
2023/09/10 01:41:17;;;;;;;9.43;7.90;;;;;;;12.95;73.00;100494.66;5055233;28;20040;-66
2023/09/10 01:43:44;;;;;;;11.55;8.50;;;;;;;12.93;72.96;100489.38;5055990;28;20052;-67
2023/09/10 01:46:12;;;;;;;11.65;8.60;;;;;;;12.90;72.88;100478.88;5054836;28;20033;-66
2023/09/10 01:48:38;;;;;;;10.52;8.35;;;;;;;12.90;72.50;100469.00;5055924;28;20025;-66
2023/09/10 01:51:03;;;;;;;10.30;8.70;;;;;;;13.03;72.23;100490.38;5055491;28;20416;-67
2023/09/10 01:53:29;;;;;;;9.68;8.50;;;;;;;13.02;71.89;100480.59;5054467;28;20032;-66
2023/09/10 01:55:55;;;;;;;9.60;8.45;;;;;;;13.05;71.73;100482.16;5056049;28;20035;-67
2023/09/10 01:58:22;;;;;;;9.38;8.38;;;;;;;13.02;71.67;100487.78;5054080;28;20052;-67
2023/09/10 02:00:47;;;;;;;9.70;8.13;;;;;;;13.03;71.29;100487.69;5054796;28;20068;-66
2023/09/10 02:03:13;;;;;;;11.60;8.30;;;;;;;13.05;71.26;100484.84;5055525;28;20397;-67
2023/09/10 02:05:41;;;;;;;11.82;8.55;;;;;;;12.90;70.91;100463.63;5055580;28;20119;-67
2023/09/10 02:08:07;;;;;;;11.52;8.18;;;;;;;13.04;70.81;100484.00;5055541;28;20047;-66
2023/09/10 02:10:33;;;;;;;10.07;8.63;;;;;;;13.05;70.77;100482.16;5054853;28;20456;-66
2023/09/10 02:12:59;;;;;;;10.80;9.25;;;;;;;13.04;70.73;100475.06;5053898;28;20373;-67
2023/09/10 02:15:25;;;;;;;9.50;8.57;;;;;;;13.03;70.49;100479.63;5054743;28;20038;-67
2023/09/10 02:17:53;;;;;;;9.88;8.13;;;;;;;13.06;70.44;100474.00;5055429;28;20448;-67
2023/09/10 02:20:18;;;;;;;9.55;8.52;;;;;;;13.13;70.43;100476.16;5054421;28;20464;-67
2023/09/10 02:22:44;;;;;;;10.75;9.65;;;;;;;13.10;70.63;100479.94;5054972;28;20040;-67
2023/09/10 02:25:10;;;;;;;12.05;9.85;;;;;;;13.07;70.36;100481.06;5053959;28;20029;-66
2023/09/10 02:27:35;;;;;;;11.50;10.07;;;;;;;13.09;70.17;100480.09;5055856;28;20029;-66
2023/09/10 02:30:04;;;;;;;11.70;10.30;;;;;;;13.11;70.10;100483.50;5054526;28;20029;-67
2023/09/10 02:32:32;;;;;;;11.88;10.50;;;;;;;13.10;70.16;100484.50;5054935;28;20024;-66
2023/09/10 02:34:57;;;;;;;12.32;11.05;;;;;;;12.89;70.05;100447.59;5054931;28;20043;-67
2023/09/10 02:37:23;;;;;;;12.30;10.35;;;;;;;13.14;70.05;100486.81;5055177;28;20025;-67
2023/09/10 02:39:48;;;;;;;12.40;10.82;;;;;;;12.99;69.89;100459.31;5054441;28;20124;-67
2023/09/10 02:42:14;;;;;;;14.32;11.32;;;;;;;13.10;69.76;100477.25;5053690;28;20031;-68
2023/09/10 02:44:40;;;;;;;12.80;11.02;;;;;;;13.24;69.64;100486.06;5055091;28;20044;-68
2023/09/10 02:47:06;;;;;;;12.77;10.70;;;;;;;13.06;69.78;100459.69;5054258;28;20029;-71
2023/09/10 02:49:32;;;;;;;12.02;10.70;;;;;;;13.04;69.83;100453.56;5054286;28;20029;-67
2023/09/10 02:51:58;;;;;;;12.35;11.05;;;;;;;13.28;69.79;100492.88;5054121;28;20139;-66
2023/09/10 02:54:23;;;;;;;12.15;10.85;;;;;;;13.23;69.87;100487.88;5054648;28;20041;-66
2023/09/10 02:56:52;;;;;;;15.32;11.13;;;;;;;13.24;69.82;100486.91;5037442;28;20104;-67
2023/09/10 02:59:25;;;;;;;11.60;10.50;;;;;;;13.14;70.02;100469.81;5053436;28;20090;-67
2023/09/10 03:01:52;;;;;;;11.85;10.18;;;;;;;13.27;69.89;100493.88;5054335;28;20033;-67
2023/09/10 03:04:17;;;;;;;12.57;10.02;;;;;;;13.32;69.68;100494.34;5054337;28;20029;-67
2023/09/10 03:06:47;;;;;;;11.85;10.63;;;;;;;13.40;69.93;100496.41;5054574;28;20513;-67
2023/09/10 03:09:14;;;;;;;13.18;9.70;;;;;;;13.39;69.72;100505.47;5053677;28;20040;-66
2023/09/10 03:11:41;;;;;;;13.85;10.50;;;;;;;13.39;69.59;100500.09;5053712;28;20037;-66
2023/09/10 03:14:07;;;;;;;12.15;10.85;;;;;;;13.37;69.84;100505.56;5054543;28;20033;-67
2023/09/10 03:16:40;;;;;;;11.82;10.63;;;;;;;13.45;69.62;100494.22;5053678;28;20464;-66
2023/09/10 03:19:06;;;;;;;12.02;10.52;;;;;;;13.38;69.80;100498.38;5053925;28;20116;-67
2023/09/10 03:21:32;;;;;;;13.38;10.70;;;;;;;13.41;69.60;100499.00;5053681;28;20433;-67
2023/09/10 03:23:58;;;;;;;12.45;11.15;;;;;;;13.44;69.59;100492.50;5054234;28;20131;-66
2023/09/10 03:26:23;;;;;;;11.88;10.63;;;;;;;13.46;69.68;100502.19;5053926;28;20028;-67
2023/09/10 03:28:49;;;;;;;12.02;10.63;;;;;;;13.48;69.40;100504.72;5051825;28;20029;-66
2023/09/10 03:31:14;;;;;;;12.18;10.70;;;;;;;13.43;69.30;100496.19;5052869;28;20109;-67
2023/09/10 03:33:41;;;;;;;14.13;10.32;;;;;;;13.35;69.25;100489.56;5053779;28;20022;-67
2023/09/10 03:36:06;;;;;;;12.05;10.75;;;;;;;13.41;69.35;100498.13;5052461;28;20029;-66
2023/09/10 03:38:32;;;;;;;12.43;10.48;;;;;;;13.40;69.49;100502.66;5053831;28;20241;-68
2023/09/10 03:40:58;;;;;;;12.70;11.30;;;;;;;13.40;69.62;100494.59;5052611;28;20148;-67
2023/09/10 03:43:24;;;;;;;14.13;10.48;;;;;;;13.40;69.66;100501.78;5036233;28;20446;-67
2023/09/10 03:45:50;;;;;;;14.60;10.77;;;;;;;13.37;69.88;100496.66;5051930;28;20031;-68
2023/09/10 03:48:15;;;;;;;15.35;11.82;;;;;;;13.17;69.68;100465.06;5053262;28;20033;-66
2023/09/10 03:50:41;;;;;;;13.75;12.35;;;;;;;13.34;69.68;100493.25;5053680;28;20025;-68
2023/09/10 03:53:07;;;;;;;13.48;11.57;;;;;;;13.34;69.78;100497.75;5053224;28;20033;-65
2023/09/10 03:55:33;;;;;;;12.75;11.35;;;;;;;13.25;69.53;100483.22;5051990;28;20021;-67
2023/09/10 03:57:59;;;;;;;12.00;10.65;;;;;;;13.43;69.33;100507.81;5053431;28;20138;-73
2023/09/10 04:00:24;;;;;;;14.27;10.38;;;;;;;13.41;69.20;100506.19;5052697;28;20128;-69
2023/09/10 04:02:50;;;;;;;13.80;10.98;;;;;;;13.44;68.95;100509.53;5053080;28;20033;-70
2023/09/10 04:05:16;;;;;;;13.50;11.57;;;;;;;13.46;69.12;100506.69;5053021;28;20073;-71
2023/09/10 04:07:42;;;;;;;11.80;10.35;;;;;;;13.21;68.89;100473.69;5053142;28;20033;-63
2023/09/10 04:10:08;;;;;;;11.73;10.45;;;;;;;13.23;69.32;100485.19;5052835;28;20076;-63
2023/09/10 04:12:34;;;;;;;13.88;11.38;;;;;;;13.41;69.48;100506.19;5052078;28;20056;-73
2023/09/10 04:15:00;;;;;;;14.23;11.20;;;;;;;13.45;69.15;100507.66;5052304;28;20037;-70
2023/09/10 04:17:28;;;;;;;12.95;11.35;;;;;;;13.48;68.84;100502.03;5051975;28;20036;-71
2023/09/10 04:19:54;;;;;;;12.95;11.15;;;;;;;13.39;68.86;100483.94;5052863;28;20129;-70
2023/09/10 04:22:20;;;;;;;12.32;11.05;;;;;;;13.52;68.58;100514.28;5052925;28;20043;-69
2023/09/10 04:24:45;;;;;;;12.63;11.27;;;;;;;13.42;68.25;100484.56;5052210;28;20439;-66
2023/09/10 04:27:11;;;;;;;13.55;10.77;;;;;;;13.59;68.50;100507.41;5053079;28;20363;-62
2023/09/10 04:29:37;;;;;;;13.18;10.93;;;;;;;13.60;68.15;100501.03;5052919;28;20040;-61
2023/09/10 04:32:02;;;;;;;12.68;11.38;;;;;;;13.61;68.26;100510.81;5052183;28;20450;-61
2023/09/10 04:34:28;;;;;;;14.30;11.63;;;;;;;13.65;68.08;100511.44;5052635;28;20098;-62
2023/09/10 04:36:53;;;;;;;11.80;10.45;;;;;;;13.67;67.51;100503.22;5051870;28;20032;-62
2023/09/10 04:39:19;;;;;;;14.10;11.02;;;;;;;13.53;68.05;100481.00;5052055;28;20387;-62
2023/09/10 04:41:44;;;;;;;14.00;11.57;;;;;;;13.71;68.15;100504.66;5052767;28;20116;-61
2023/09/10 04:44:10;;;;;;;13.55;11.40;;;;;;;13.77;67.79;100512.25;5052285;28;20041;-62
2023/09/10 04:46:35;;;;;;;13.35;10.93;;;;;;;13.77;68.11;100501.47;5051643;28;20086;-61
2023/09/10 04:49:01;;;;;;;15.30;11.73;;;;;;;13.88;67.60;100514.88;5052230;28;20440;-61
2023/09/10 04:51:26;;;;;;;12.30;11.00;;;;;;;13.92;67.58;100520.88;5052913;28;20082;-60
2023/09/10 04:53:52;;;;;;;11.52;10.32;;;;;;;13.97;67.32;100510.56;5052545;28;20032;-62
2023/09/10 04:56:17;;;;;;;12.55;11.20;;;;;;;13.93;67.15;100509.97;5051994;28;20071;-65
2023/09/10 04:58:43;;;;;;;12.73;11.32;;;;;;;14.03;66.85;100510.03;5051850;28;20029;-63
2023/09/10 05:01:09;;;;;;;13.32;10.45;;;;;;;14.10;66.37;100501.44;5051558;28;20033;-58
2023/09/10 05:03:34;;;;;;;14.20;10.00;;;;;;;14.13;66.00;100518.19;5052241;28;20095;-59
2023/09/10 05:06:02;;;;;;;12.57;9.68;;;;;;;14.07;65.86;100516.88;5052153;28;20025;-61
2023/09/10 05:08:28;;;;;;;11.50;10.15;;;;;;;14.04;66.12;100494.75;5051106;28;20355;-61
2023/09/10 05:10:55;;;;;;;11.93;10.13;;;;;;;14.10;66.08;100504.13;5052176;28;20024;-65
2023/09/10 05:13:20;;;;;;;11.95;9.75;;;;;;;14.15;66.08;100510.84;5051783;28;20452;-60
2023/09/10 05:15:49;;;;;;;12.40;10.02;;;;;;;14.27;65.87;100505.41;5052220;28;20112;-60
2023/09/10 05:18:15;;;;;;;11.82;9.32;;;;;;;14.29;65.34;100504.28;5051207;28;20150;-61
2023/09/10 05:20:41;;;;;;;11.70;9.27;;;;;;;14.14;65.02;100465.22;5052358;28;20455;-61
2023/09/10 05:23:07;;;;;;;12.18;10.43;;;;;;;14.37;64.79;100508.16;5051581;28;20070;-63
2023/09/10 05:25:35;;;;;;;10.95;9.60;;;;;;;14.43;64.78;100505.78;5052216;28;20057;-61
2023/09/10 05:28:01;;;;;;;11.30;9.73;;;;;;;14.37;64.54;100511.69;5051399;28;20090;-63
2023/09/10 05:30:27;;;;;;;11.55;9.90;;;;;;;14.38;64.81;100513.41;5051129;28;20113;-63
2023/09/10 05:32:52;;;;;;;12.48;10.02;;;;;;;14.40;64.37;100508.75;5052118;28;20025;-62
2023/09/10 05:35:18;;;;;;;11.98;10.18;;;;;;;14.43;64.29;100510.31;5034357;28;20053;-63
2023/09/10 05:37:43;;;;;;;11.85;10.60;;;;;;;14.41;64.24;100512.31;5051940;28;20511;-62
2023/09/10 05:40:09;;;;;;;14.00;9.77;;;;;;;14.45;64.44;100516.44;5051054;28;20526;-63
2023/09/10 05:42:35;;;;;;;12.35;10.40;;;;;;;14.50;64.54;100512.38;5052171;28;20061;-60
2023/09/10 05:45:00;;;;;;;13.35;10.73;;;;;;;14.53;63.71;100502.31;5051997;28;20028;-63
2023/09/10 05:47:26;;;;;;;12.80;10.70;;;;;;;14.55;63.91;100508.41;5051349;28;20140;-62
2023/09/10 05:49:52;;;;;;;11.43;10.25;;;;;;;14.59;63.19;100512.53;5051852;28;20036;-62
2023/09/10 05:52:17;;;;;;;12.07;10.77;;;;;;;14.58;63.22;100524.31;5052499;28;20033;-62
2023/09/10 05:54:42;;;;;;;12.85;11.23;;;;;;;14.57;63.41;100509.13;5051664;28;20025;-62
2023/09/10 05:57:08;;;;;;;12.18;10.45;;;;;;;14.61;62.82;100513.25;5051757;28;20110;-64
2023/09/10 05:59:34;;;;;;;12.68;10.93;;;;;;;14.61;63.15;100514.13;5052985;28;20115;-61
2023/09/10 06:01:59;;;;;;;17.17;11.82;;;;;;;14.62;63.10;100510.44;5055553;28;20102;-69
2023/09/10 06:04:25;;;;;;;15.70;11.82;;;;;;;14.69;62.89;100516.13;5055283;28;20075;-68
2023/09/10 06:06:50;;;;;;;17.65;11.82;;;;;;;14.55;62.76;100481.47;5055569;28;20104;-70
2023/09/10 06:09:16;;;;;;;16.83;12.23;;;;;;;14.76;62.65;100516.50;5054969;28;20090;-69
2023/09/10 06:11:41;;;;;;;14.48;11.98;;;;;;;14.81;62.53;100518.78;5055240;28;20103;-70
2023/09/10 06:14:08;;;;;;;13.13;11.80;;;;;;;14.63;62.39;100481.63;5054490;28;20048;-71
2023/09/10 06:16:34;;;;;;;14.07;12.43;;;;;;;14.84;62.39;100510.44;5054249;28;20036;-71
2023/09/10 06:18:59;;;;;;;13.80;11.90;;;;;;;14.90;62.37;100512.56;5054700;28;20032;-71
2023/09/10 06:21:25;;;;;;;13.77;11.73;;;;;;;14.86;62.33;100505.75;5055297;28;20033;-70
2023/09/10 06:23:50;;;;;;;13.75;12.18;;;;;;;14.63;62.35;100478.94;5054781;28;20028;-59
2023/09/10 06:26:16;;;;;;;15.90;12.63;;;;;;;14.79;62.48;100513.53;5054253;28;20451;-63
2023/09/10 06:28:41;;;;;;;17.30;12.32;;;;;;;14.76;62.38;100506.56;5054976;28;20040;-66
2023/09/10 06:31:08;;;;;;;14.98;13.02;;;;;;;14.83;62.52;100511.41;5053230;28;20027;-70
2023/09/10 06:33:33;;;;;;;17.13;12.93;;;;;;;14.86;62.23;100516.53;5054473;28;20078;-61
2023/09/10 06:36:01;;;;;;;14.55;12.48;;;;;;;14.93;62.39;100512.31;5054741;28;20036;-62
2023/09/10 06:38:28;;;;;;;17.00;12.10;;;;;;;14.92;62.29;100522.25;5055017;28;20025;-64
2023/09/10 06:40:54;;;;;;;16.52;12.23;;;;;;;14.95;62.11;100526.53;5053336;28;20039;-64
2023/09/10 06:43:19;;;;;;;17.73;12.55;;;;;;;14.92;62.09;100516.84;5054752;28;20037;-62
2023/09/10 06:45:45;;;;;;;12.93;11.55;;;;;;;14.89;61.99;100525.22;5054821;28;20025;-61
2023/09/10 06:48:10;;;;;;;13.30;11.93;;;;;;;14.82;62.21;100515.94;5054261;28;20329;-62
2023/09/10 06:50:36;;;;;;;12.88;11.55;;;;;;;14.76;62.37;100520.06;5053168;28;20033;-62
2023/09/10 06:53:01;;;;;;;14.52;12.07;;;;;;;14.77;62.52;100520.88;5053824;28;20025;-62
2023/09/10 06:55:27;;;;;;;16.38;12.02;;;;;;;14.88;62.30;100525.34;5054100;28;20024;-63
2023/09/10 06:57:52;;;;;;;12.65;11.35;;;;;;;14.93;61.95;100517.69;5054607;28;20029;-61
2023/09/10 07:00:18;;;;;;;14.52;11.60;;;;;;;15.02;61.89;100518.72;5053975;28;20104;-61
2023/09/10 07:02:44;;;;;;;11.88;10.68;;;;;;;15.07;61.65;100519.16;5054166;28;20294;-63
2023/09/10 07:05:09;;;;;;;12.00;10.80;;;;;;;15.17;61.35;100524.59;5054679;28;20047;-61
2023/09/10 07:07:36;;;;;;;12.45;10.90;;;;;;;15.21;61.27;100526.91;5054479;28;20070;-62
2023/09/10 07:10:01;;;;;;;11.85;10.38;;;;;;;15.03;61.10;100498.88;5053628;28;20040;-61
2023/09/10 07:12:30;;;;;;;13.02;10.32;;;;;;;15.24;61.04;100519.53;5053590;28;20049;-62
2023/09/10 07:14:56;;;;;;;11.32;9.90;;;;;;;15.24;60.63;100531.19;5053987;28;20032;-64
2023/09/10 07:17:21;;;;;;;13.45;9.60;;;;;;;15.28;60.82;100527.22;5053849;28;20041;-61
2023/09/10 07:19:46;;;;;;;14.43;9.45;;;;;;;15.35;60.26;100517.56;5053670;28;20031;-61
2023/09/10 07:22:13;;;;;;;13.73;9.93;;;;;;;15.50;60.00;100519.88;5054039;28;20033;-62
2023/09/10 07:24:39;;;;;;;12.98;9.20;;;;;;;15.60;59.62;100523.44;5053192;28;20029;-61
2023/09/10 07:27:04;;;;;;;12.30;9.68;;;;;;;15.50;59.29;100492.91;5052923;28;20370;-61
2023/09/10 07:29:30;;;;;;;11.38;9.05;;;;;;;15.81;59.15;100527.88;5052996;28;20394;-62
2023/09/10 07:31:56;;;;;;;9.80;8.80;;;;;;;15.86;58.60;100517.50;5053711;28;20074;-66
2023/09/10 07:34:21;;;;;;;12.68;9.43;;;;;;;16.06;58.57;100533.75;5054310;28;20039;-62
2023/09/10 07:36:47;;;;;;;10.07;9.07;;;;;;;16.12;58.04;100518.81;5053952;28;20037;-62
2023/09/10 07:39:14;;;;;;;10.18;9.18;;;;;;;16.19;57.89;100526.22;5053494;28;20024;-63
2023/09/10 07:41:39;;;;;;;11.23;9.32;;;;;;;16.24;57.74;100522.22;5053749;28;20458;-62
2023/09/10 07:44:06;;;;;;;10.50;8.60;;;;;;;16.20;57.97;100527.06;5052570;28;20067;-63
2023/09/10 07:46:34;;;;;;;11.13;9.40;;;;;;;16.23;57.97;100525.91;5053192;28;20033;-61
2023/09/10 07:49:00;;;;;;;11.88;9.10;;;;;;;16.18;57.67;100504.72;5053064;28;20036;-65
2023/09/10 07:51:25;;;;;;;12.63;9.23;;;;;;;16.23;57.60;100520.53;5053835;28;20025;-61
2023/09/10 07:53:51;;;;;;;12.80;8.95;;;;;;;16.17;57.66;100522.81;5053474;28;20040;-60
2023/09/10 07:56:16;;;;;;;11.68;9.10;;;;;;;16.18;57.83;100527.22;5053330;28;20541;-59
2023/09/10 07:58:42;;;;;;;14.00;9.40;;;;;;;16.24;57.67;100522.22;5053504;28;20029;-62
2023/09/10 08:01:07;;;;;;;12.90;9.88;;;;;;;16.13;57.44;100509.72;5052056;28;20029;-59
2023/09/10 08:03:36;;;;;;;13.15;8.77;;;;;;;16.34;57.36;100523.91;5053803;28;20091;-62
2023/09/10 08:06:02;;;;;;;14.18;9.88;;;;;;;16.43;57.10;100527.59;5051943;28;20335;-61
2023/09/10 08:08:28;;;;;;;10.10;9.07;;;;;;;16.49;56.93;100518.03;5053007;28;20037;-66
2023/09/10 08:10:53;;;;;;;11.38;9.52;;;;;;;16.56;56.44;100515.63;5052917;28;20052;-61
2023/09/10 08:13:20;;;;;;;9.40;8.55;;;;;;;16.59;56.12;100526.13;5053398;28;20056;-56
2023/09/10 08:15:46;;;;;;;11.60;10.40;;;;;;;16.53;56.49;100516.78;5052595;28;20060;-60
2023/09/10 08:18:12;;;;;;;12.05;9.95;;;;;;;16.56;56.64;100516.47;5052613;28;20501;-59
2023/09/10 08:20:39;;;;;;;13.52;9.90;;;;;;;16.35;56.22;100495.03;5053147;28;20033;-63
2023/09/10 08:23:05;;;;;;;16.15;10.55;;;;;;;16.40;56.51;100521.63;5052417;28;20347;-65
2023/09/10 08:25:31;;;;;;;13.65;10.52;;;;;;;16.36;56.88;100521.06;5051984;28;20031;-65
2023/09/10 08:27:58;;;;;;;11.82;10.70;;;;;;;16.53;56.27;100515.91;5052623;28;20021;-64
2023/09/10 08:30:24;;;;;;;16.67;11.30;;;;;;;16.82;55.88;100504.16;5051633;28;20040;-63
2023/09/10 08:32:50;;;;;;;13.38;11.95;;;;;;;17.05;54.42;100508.22;5051889;28;20037;-64
2023/09/10 08:35:18;;;;;;;12.55;11.00;;;;;;;17.22;53.97;100503.00;5035164;28;20378;-64
2023/09/10 08:37:43;;;;;;;13.57;11.45;;;;;;;17.44;53.58;100506.31;5052220;28;20036;-65
2023/09/10 08:40:10;;;;;;;13.45;11.45;;;;;;;17.42;52.96;100484.78;5052917;28;20032;-68
2023/09/10 08:42:37;;;;;;;13.45;11.43;;;;;;;17.63;52.27;100502.63;5035470;28;20021;-64
2023/09/10 08:45:07;;;;;;;14.15;11.05;;;;;;;17.80;52.43;100506.31;5051702;28;20033;-66
2023/09/10 08:47:39;;;;;;;13.43;11.57;;;;;;;18.40;51.64;100499.41;5051464;28;20450;-66
2023/09/10 08:50:10;;;;;;;11.88;10.68;;;;;;;19.03;50.12;100494.69;5051935;28;20356;-64
2023/09/10 08:52:41;;;;;;;14.32;11.95;;;;;;;19.55;48.37;100498.28;5052960;28;20089;-64
2023/09/10 08:55:08;;;;;;;12.27;10.98;;;;;;;19.79;47.26;100502.06;5051201;28;20065;-63
2023/09/10 08:57:36;;;;;;;12.65;10.73;;;;;;;19.94;46.79;100496.84;5030702;28;20127;-63
2023/09/10 09:00:06;;;;;;;12.68;11.38;;;;;;;19.88;46.60;100492.03;5031761;28;20345;-63
2023/09/10 09:02:32;;;;;;;12.50;11.20;;;;;;;19.93;46.53;100487.00;5042153;28;20128;-64
2023/09/10 09:04:57;;;;;;;12.40;10.85;;;;;;;19.86;46.69;100453.31;5052807;28;20068;-64
2023/09/10 09:07:28;;;;;;;12.40;10.55;;;;;;;20.40;45.55;100496.31;5050948;28;20036;-63
2023/09/10 09:09:57;;;;;;;11.45;10.30;;;;;;;20.66;44.65;100465.31;5052366;28;20474;-64
2023/09/10 09:12:24;;;;;;;11.98;10.65;;;;;;;20.94;44.45;100473.06;5052341;28;20375;-64
2023/09/10 09:14:50;;;;;;;12.05;10.85;;;;;;;20.92;43.89;100483.28;5052105;28;20037;-66
2023/09/10 09:17:16;;;;;;;12.23;10.70;;;;;;;20.73;44.21;100477.19;5051112;28;20585;-65
2023/09/10 09:19:45;;;;;;;15.68;10.00;;;;;;;20.68;44.62;100476.84;5033869;28;20123;-65
2023/09/10 09:22:12;;;;;;;13.65;10.07;;;;;;;20.48;44.95;100482.69;5050340;28;20045;-65
2023/09/10 09:24:40;;;;;;;11.15;9.95;;;;;;;20.20;45.23;100466.75;5052227;28;20025;-64
2023/09/10 09:27:07;;;;;;;11.02;9.93;;;;;;;19.98;46.38;100478.31;5051799;28;20381;-64
2023/09/10 09:29:33;;;;;;;11.60;10.48;;;;;;;19.75;46.30;100479.81;5052418;28;20041;-66
2023/09/10 09:31:58;;;;;;;12.88;10.68;;;;;;;19.49;46.76;100467.22;5052302;28;20032;-65
2023/09/10 09:34:24;;;;;;;11.63;10.43;;;;;;;19.30;47.87;100473.78;5052840;28;20033;-64
2023/09/10 09:36:51;;;;;;;14.73;11.38;;;;;;;19.21;48.18;100469.34;5055879;28;20108;-63
2023/09/10 09:39:18;;;;;;;14.02;11.13;;;;;;;19.12;48.38;100467.63;5055824;28;20110;-65
2023/09/10 09:41:50;;;;;;;12.27;10.80;;;;;;;19.00;48.82;100438.03;5055996;28;20147;-67
2023/09/10 09:44:16;;;;;;;11.82;10.43;;;;;;;18.97;48.19;100432.91;5054903;28;20481;-65
2023/09/10 09:46:43;;;;;;;13.30;10.57;;;;;;;18.98;48.46;100466.34;5054976;28;20107;-65
2023/09/10 09:49:08;;;;;;;11.68;9.93;;;;;;;18.86;48.49;100461.19;5055963;28;20025;-64
2023/09/10 09:51:34;;;;;;;11.05;9.93;;;;;;;18.96;48.67;100455.63;5055516;28;20043;-63
2023/09/10 09:54:01;;;;;;;11.65;10.45;;;;;;;19.02;48.28;100449.59;5056099;28;20043;-64
2023/09/10 09:56:26;;;;;;;11.90;10.20;;;;;;;19.14;48.69;100446.59;5055274;28;20116;-64
2023/09/10 09:58:56;;;;;;;13.27;10.57;;;;;;;19.25;48.43;100435.41;5053871;28;20151;-65
2023/09/10 10:01:22;;;;;;;11.18;9.93;;;;;;;19.25;48.24;100424.53;5055989;28;20041;-64
2023/09/10 10:03:48;;;;;;;14.88;10.32;;;;;;;19.35;47.38;100437.97;5054428;28;20025;-63
2023/09/10 10:06:16;;;;;;;15.85;9.82;;;;;;;19.37;47.47;100435.94;5054818;28;20425;-64
2023/09/10 10:08:48;;;;;;;10.80;9.70;;;;;;;19.46;47.32;100434.97;5054641;28;20533;-65
2023/09/10 10:11:15;;;;;;;10.63;9.20;;;;;;;19.54;46.99;100431.41;5053337;28;20140;-64
2023/09/10 10:13:41;;;;;;;11.27;9.65;;;;;;;19.58;46.72;100437.34;5054526;28;20036;-64
2023/09/10 10:16:07;;;;;;;12.70;9.18;;;;;;;19.62;46.92;100441.41;5055327;28;20052;-64
2023/09/10 10:18:33;;;;;;;13.10;8.82;;;;;;;19.61;46.87;100437.00;5054996;28;20363;-64
2023/09/10 10:21:00;;;;;;;9.70;8.43;;;;;;;19.49;46.76;100431.03;5055264;28;20029;-64
2023/09/10 10:23:26;;;;;;;10.77;8.98;;;;;;;19.41;47.21;100431.03;5055447;28;20033;-64
2023/09/10 10:25:52;;;;;;;11.25;8.85;;;;;;;19.43;47.64;100424.44;5055511;28;20031;-62
2023/09/10 10:28:19;;;;;;;11.02;8.27;;;;;;;19.45;46.94;100399.81;5054691;28;20113;-65
2023/09/10 10:31:07;;;;;;;11.38;9.32;;;;;;;19.76;46.46;100424.44;5054326;28;20065;-65
2023/09/10 10:33:37;;;;;;;10.50;9.10;;;;;;;19.62;46.71;100416.97;5055227;28;20054;-64
2023/09/10 10:36:10;;;;;;;11.27;9.27;;;;;;;19.54;46.68;100414.25;5055223;28;20033;-65
2023/09/10 10:38:40;;;;;;;10.65;8.90;;;;;;;19.47;47.30;100411.34;5055561;28;20340;-64
2023/09/10 10:41:13;;;;;;;10.02;8.30;;;;;;;19.56;47.67;100404.06;5054898;28;20459;-65
2023/09/10 10:43:51;;;;;;;12.40;9.05;;;;;;;19.49;47.62;100398.44;5054641;28;20098;-63
2023/09/10 10:46:18;;;;;;;12.13;9.13;;;;;;;19.51;47.10;100401.84;5053782;28;20515;-64
2023/09/10 10:48:44;;;;;;;9.80;8.80;;;;;;;19.53;47.13;100399.81;5053728;28;20040;-65
2023/09/10 10:51:15;;;;;;;12.57;8.90;;;;;;;19.44;47.11;100362.81;5054461;28;20032;-64
2023/09/10 10:53:41;;;;;;;11.07;8.57;;;;;;;19.58;47.33;100388.44;5054372;28;20028;-65
2023/09/10 10:56:08;;;;;;;10.80;8.02;;;;;;;19.73;46.77;100391.31;5055040;28;20025;-65
2023/09/10 10:58:40;;;;;;;10.57;8.55;;;;;;;19.91;46.38;100383.06;5055050;28;20506;-64
2023/09/10 11:01:05;;;;;;;11.80;7.90;;;;;;;20.00;45.70;100387.44;5053862;28;20040;-64
2023/09/10 11:03:32;;;;;;;10.65;7.63;;;;;;;19.84;45.34;100354.81;5054488;28;20033;-65
2023/09/10 11:06:04;;;;;;;8.48;7.28;;;;;;;20.10;45.21;100373.66;5054929;28;20111;-63
2023/09/10 11:08:31;;;;;;;8.07;7.03;;;;;;;19.97;44.87;100346.16;5054444;28;20037;-65
2023/09/10 11:10:58;;;;;;;8.57;7.38;;;;;;;20.17;45.08;100374.66;5053870;28;20056;-64
2023/09/10 11:13:24;;;;;;;9.48;7.45;;;;;;;20.14;45.44;100371.47;5054331;28;20124;-64